sensor_id;sensor_type;location;lat;lon;timestamp;P1;durP1;ratioP1;P2;durP2;ratioP2
75526;SDS011;64107;49.248;7.006;2023-03-01T00:02:25;10.27;;;4.88;;
75526;SDS011;64107;49.248;7.006;2023-03-01T00:04:51;10.02;;;4.65;;
75526;SDS011;64107;49.248;7.006;2023-03-01T00:07:17;11.93;;;5.97;;
75526;SDS011;64107;49.248;7.006;2023-03-01T00:09:43;7.65;;;4.57;;
75526;SDS011;64107;49.248;7.006;2023-03-01T00:12:10;10.30;;;4.78;;
75526;SDS011;64107;49.248;7.006;2023-03-01T00:14:36;9.45;;;4.47;;
75526;SDS011;64107;49.248;7.006;2023-03-01T00:17:02;8.85;;;4.57;;
75526;SDS011;64107;49.248;7.006;2023-03-01T00:19:28;7.97;;;4.90;;
75526;SDS011;64107;49.248;7.006;2023-03-01T00:21:55;8.45;;;4.60;;
75526;SDS011;64107;49.248;7.006;2023-03-01T00:24:21;9.35;;;4.95;;
75526;SDS011;64107;49.248;7.006;2023-03-01T00:26:47;11.80;;;4.72;;
75526;SDS011;64107;49.248;7.006;2023-03-01T00:29:13;8.48;;;4.47;;
75526;SDS011;64107;49.248;7.006;2023-03-01T00:31:39;10.18;;;5.38;;
75526;SDS011;64107;49.248;7.006;2023-03-01T00:34:05;7.50;;;4.30;;
75526;SDS011;64107;49.248;7.006;2023-03-01T00:36:32;10.13;;;5.32;;
75526;SDS011;64107;49.248;7.006;2023-03-01T00:38:59;7.72;;;4.07;;
75526;SDS011;64107;49.248;7.006;2023-03-01T00:41:26;9.50;;;4.18;;
75526;SDS011;64107;49.248;7.006;2023-03-01T00:46:19;9.55;;;4.95;;
75526;SDS011;64107;49.248;7.006;2023-03-01T00:48:47;7.57;;;4.80;;
75526;SDS011;64107;49.248;7.006;2023-03-01T00:51:18;8.93;;;4.60;;
75526;SDS011;64107;49.248;7.006;2023-03-01T00:53:46;8.70;;;4.75;;
75526;SDS011;64107;49.248;7.006;2023-03-01T00:56:15;10.65;;;4.68;;
75526;SDS011;64107;49.248;7.006;2023-03-01T00:58:41;10.07;;;5.60;;
75526;SDS011;64107;49.248;7.006;2023-03-01T01:01:08;10.55;;;5.38;;
75526;SDS011;64107;49.248;7.006;2023-03-01T01:03:42;8.45;;;4.72;;
75526;SDS011;64107;49.248;7.006;2023-03-01T01:06:13;9.43;;;3.70;;
75526;SDS011;64107;49.248;7.006;2023-03-01T01:08:58;10.07;;;5.65;;
75526;SDS011;64107;49.248;7.006;2023-03-01T01:11:25;7.03;;;3.38;;
75526;SDS011;64107;49.248;7.006;2023-03-01T01:13:53;8.25;;;4.70;;
75526;SDS011;64107;49.248;7.006;2023-03-01T01:16:20;9.25;;;4.63;;
75526;SDS011;64107;49.248;7.006;2023-03-01T01:18:48;8.63;;;5.32;;
75526;SDS011;64107;49.248;7.006;2023-03-01T01:21:16;7.88;;;4.07;;
75526;SDS011;64107;49.248;7.006;2023-03-01T01:23:45;13.43;;;5.65;;
75526;SDS011;64107;49.248;7.006;2023-03-01T01:26:16;7.93;;;4.35;;
75526;SDS011;64107;49.248;7.006;2023-03-01T01:28:43;9.82;;;5.78;;
75526;SDS011;64107;49.248;7.006;2023-03-01T01:31:09;6.18;;;4.63;;
75526;SDS011;64107;49.248;7.006;2023-03-01T01:33:36;8.05;;;4.55;;
75526;SDS011;64107;49.248;7.006;2023-03-01T01:36:03;9.30;;;4.88;;
75526;SDS011;64107;49.248;7.006;2023-03-01T01:38:30;9.85;;;4.63;;
75526;SDS011;64107;49.248;7.006;2023-03-01T01:40:56;10.60;;;4.95;;
75526;SDS011;64107;49.248;7.006;2023-03-01T01:45:50;9.35;;;5.43;;
75526;SDS011;64107;49.248;7.006;2023-03-01T01:48:20;8.57;;;4.40;;
75526;SDS011;64107;49.248;7.006;2023-03-01T01:50:55;8.75;;;5.38;;
75526;SDS011;64107;49.248;7.006;2023-03-01T01:53:24;8.82;;;4.80;;
75526;SDS011;64107;49.248;7.006;2023-03-01T01:55:52;10.85;;;6.68;;
75526;SDS011;64107;49.248;7.006;2023-03-01T01:58:21;9.38;;;4.97;;
75526;SDS011;64107;49.248;7.006;2023-03-01T02:00:48;12.93;;;7.03;;
75526;SDS011;64107;49.248;7.006;2023-03-01T02:03:17;10.13;;;5.97;;
75526;SDS011;64107;49.248;7.006;2023-03-01T02:05:53;8.90;;;4.55;;
75526;SDS011;64107;49.248;7.006;2023-03-01T02:08:33;11.27;;;5.72;;
75526;SDS011;64107;49.248;7.006;2023-03-01T02:11:01;13.13;;;6.03;;
75526;SDS011;64107;49.248;7.006;2023-03-01T02:13:31;9.10;;;5.75;;
75526;SDS011;64107;49.248;7.006;2023-03-01T02:15:58;9.15;;;4.90;;
75526;SDS011;64107;49.248;7.006;2023-03-01T02:18:27;11.85;;;6.35;;
75526;SDS011;64107;49.248;7.006;2023-03-01T02:23:34;11.80;;;6.50;;
75526;SDS011;64107;49.248;7.006;2023-03-01T02:26:18;10.95;;;6.18;;
75526;SDS011;64107;49.248;7.006;2023-03-01T02:28:58;7.50;;;4.57;;
75526;SDS011;64107;49.248;7.006;2023-03-01T02:31:24;8.35;;;4.70;;
75526;SDS011;64107;49.248;7.006;2023-03-01T02:34:29;9.07;;;4.95;;
75526;SDS011;64107;49.248;7.006;2023-03-01T02:36:56;5.88;;;4.15;;
75526;SDS011;64107;49.248;7.006;2023-03-01T02:39:33;11.70;;;5.95;;
75526;SDS011;64107;49.248;7.006;2023-03-01T02:42:07;8.93;;;5.05;;
75526;SDS011;64107;49.248;7.006;2023-03-01T02:44:41;10.68;;;5.18;;
75526;SDS011;64107;49.248;7.006;2023-03-01T02:47:07;12.32;;;5.70;;
75526;SDS011;64107;49.248;7.006;2023-03-01T02:49:34;6.22;;;4.38;;
75526;SDS011;64107;49.248;7.006;2023-03-01T02:54:59;13.93;;;6.70;;
75526;SDS011;64107;49.248;7.006;2023-03-01T02:57:28;8.60;;;4.63;;
75526;SDS011;64107;49.248;7.006;2023-03-01T02:59:55;9.45;;;5.00;;
75526;SDS011;64107;49.248;7.006;2023-03-01T03:02:25;8.32;;;4.72;;
75526;SDS011;64107;49.248;7.006;2023-03-01T03:05:08;8.90;;;4.38;;
75526;SDS011;64107;49.248;7.006;2023-03-01T03:07:36;7.25;;;4.63;;
75526;SDS011;64107;49.248;7.006;2023-03-01T03:10:05;7.82;;;4.28;;
75526;SDS011;64107;49.248;7.006;2023-03-01T03:12:33;8.52;;;4.68;;
75526;SDS011;64107;49.248;7.006;2023-03-01T03:14:59;10.02;;;5.43;;
75526;SDS011;64107;49.248;7.006;2023-03-01T03:17:25;13.23;;;5.80;;
75526;SDS011;64107;49.248;7.006;2023-03-01T03:19:51;14.35;;;6.35;;
75526;SDS011;64107;49.248;7.006;2023-03-01T03:22:17;8.70;;;5.35;;
75526;SDS011;64107;49.248;7.006;2023-03-01T03:24:43;10.57;;;4.82;;
75526;SDS011;64107;49.248;7.006;2023-03-01T03:27:09;9.68;;;4.30;;
75526;SDS011;64107;49.248;7.006;2023-03-01T03:29:35;9.90;;;4.68;;
75526;SDS011;64107;49.248;7.006;2023-03-01T03:32:02;11.05;;;6.60;;
75526;SDS011;64107;49.248;7.006;2023-03-01T03:34:28;13.00;;;7.18;;
75526;SDS011;64107;49.248;7.006;2023-03-01T03:36:55;20.05;;;7.80;;
75526;SDS011;64107;49.248;7.006;2023-03-01T03:39:24;15.02;;;7.97;;
75526;SDS011;64107;49.248;7.006;2023-03-01T03:44:16;9.73;;;5.35;;
75526;SDS011;64107;49.248;7.006;2023-03-01T03:46:42;12.55;;;4.97;;
75526;SDS011;64107;49.248;7.006;2023-03-01T03:49:08;17.48;;;8.45;;
75526;SDS011;64107;49.248;7.006;2023-03-01T03:51:35;13.20;;;6.50;;
75526;SDS011;64107;49.248;7.006;2023-03-01T03:54:01;12.18;;;6.03;;
75526;SDS011;64107;49.248;7.006;2023-03-01T03:56:27;13.80;;;6.47;;
75526;SDS011;64107;49.248;7.006;2023-03-01T03:58:53;12.50;;;6.18;;
75526;SDS011;64107;49.248;7.006;2023-03-01T04:01:19;9.82;;;7.07;;
75526;SDS011;64107;49.248;7.006;2023-03-01T04:03:45;10.88;;;6.28;;
75526;SDS011;64107;49.248;7.006;2023-03-01T04:06:12;12.05;;;5.88;;
75526;SDS011;64107;49.248;7.006;2023-03-01T04:08:39;9.45;;;6.18;;
75526;SDS011;64107;49.248;7.006;2023-03-01T04:13:50;14.02;;;5.28;;
75526;SDS011;64107;49.248;7.006;2023-03-01T04:16:17;8.65;;;5.72;;
75526;SDS011;64107;49.248;7.006;2023-03-01T04:18:43;15.60;;;6.22;;
75526;SDS011;64107;49.248;7.006;2023-03-01T04:21:10;13.10;;;6.70;;
75526;SDS011;64107;49.248;7.006;2023-03-01T04:23:36;9.80;;;6.03;;
75526;SDS011;64107;49.248;7.006;2023-03-01T04:26:03;11.48;;;6.50;;
75526;SDS011;64107;49.248;7.006;2023-03-01T04:28:30;7.97;;;5.20;;
75526;SDS011;64107;49.248;7.006;2023-03-01T04:31:03;14.30;;;7.15;;
75526;SDS011;64107;49.248;7.006;2023-03-01T04:33:41;13.85;;;7.32;;
75526;SDS011;64107;49.248;7.006;2023-03-01T04:36:09;10.80;;;5.85;;
75526;SDS011;64107;49.248;7.006;2023-03-01T04:38:36;15.48;;;7.57;;
75526;SDS011;64107;49.248;7.006;2023-03-01T04:41:06;16.02;;;8.07;;
75526;SDS011;64107;49.248;7.006;2023-03-01T04:43:34;15.95;;;8.20;;
75526;SDS011;64107;49.248;7.006;2023-03-01T04:46:01;12.30;;;6.90;;
75526;SDS011;64107;49.248;7.006;2023-03-01T04:48:30;14.30;;;8.00;;
75526;SDS011;64107;49.248;7.006;2023-03-01T04:50:57;15.82;;;7.22;;
75526;SDS011;64107;49.248;7.006;2023-03-01T04:53:24;18.17;;;7.82;;
75526;SDS011;64107;49.248;7.006;2023-03-01T04:55:50;17.38;;;8.15;;
75526;SDS011;64107;49.248;7.006;2023-03-01T04:58:16;15.63;;;7.38;;
75526;SDS011;64107;49.248;7.006;2023-03-01T05:00:42;17.83;;;8.45;;
75526;SDS011;64107;49.248;7.006;2023-03-01T05:03:09;12.23;;;6.75;;
75526;SDS011;64107;49.248;7.006;2023-03-01T05:05:36;9.75;;;5.25;;
75526;SDS011;64107;49.248;7.006;2023-03-01T05:08:04;14.10;;;7.88;;
75526;SDS011;64107;49.248;7.006;2023-03-01T05:10:32;17.38;;;7.40;;
75526;SDS011;64107;49.248;7.006;2023-03-01T05:13:00;16.60;;;8.68;;
75526;SDS011;64107;49.248;7.006;2023-03-01T05:15:27;16.58;;;5.70;;
75526;SDS011;64107;49.248;7.006;2023-03-01T05:17:54;18.88;;;8.63;;
75526;SDS011;64107;49.248;7.006;2023-03-01T05:20:25;18.13;;;8.43;;
75526;SDS011;64107;49.248;7.006;2023-03-01T05:22:54;17.52;;;9.38;;
75526;SDS011;64107;49.248;7.006;2023-03-01T05:25:23;19.77;;;7.47;;
75526;SDS011;64107;49.248;7.006;2023-03-01T05:30:16;18.40;;;7.80;;
75526;SDS011;64107;49.248;7.006;2023-03-01T05:32:43;17.05;;;7.80;;
75526;SDS011;64107;49.248;7.006;2023-03-01T05:35:12;21.42;;;8.48;;
75526;SDS011;64107;49.248;7.006;2023-03-01T05:37:43;25.77;;;10.05;;
75526;SDS011;64107;49.248;7.006;2023-03-01T05:40:11;18.95;;;8.45;;
75526;SDS011;64107;49.248;7.006;2023-03-01T05:42:48;14.35;;;7.95;;
75526;SDS011;64107;49.248;7.006;2023-03-01T05:45:17;18.17;;;8.93;;
75526;SDS011;64107;49.248;7.006;2023-03-01T05:47:44;19.63;;;8.70;;
75526;SDS011;64107;49.248;7.006;2023-03-01T05:52:45;17.65;;;8.73;;
75526;SDS011;64107;49.248;7.006;2023-03-01T05:55:13;20.13;;;9.98;;
75526;SDS011;64107;49.248;7.006;2023-03-01T05:57:40;20.73;;;9.57;;
75526;SDS011;64107;49.248;7.006;2023-03-01T06:00:07;14.55;;;7.78;;
75526;SDS011;64107;49.248;7.006;2023-03-01T06:02:34;15.88;;;9.52;;
75526;SDS011;64107;49.248;7.006;2023-03-01T06:05:00;17.55;;;9.07;;
75526;SDS011;64107;49.248;7.006;2023-03-01T06:07:27;18.95;;;8.35;;
75526;SDS011;64107;49.248;7.006;2023-03-01T06:09:53;15.80;;;7.95;;
75526;SDS011;64107;49.248;7.006;2023-03-01T06:12:19;23.67;;;10.13;;
75526;SDS011;64107;49.248;7.006;2023-03-01T06:14:45;20.20;;;7.22;;
75526;SDS011;64107;49.248;7.006;2023-03-01T06:17:14;19.45;;;7.97;;
75526;SDS011;64107;49.248;7.006;2023-03-01T06:19:40;19.38;;;9.63;;
75526;SDS011;64107;49.248;7.006;2023-03-01T06:22:07;19.42;;;9.25;;
75526;SDS011;64107;49.248;7.006;2023-03-01T06:24:33;19.33;;;8.93;;
75526;SDS011;64107;49.248;7.006;2023-03-01T06:26:59;12.60;;;7.07;;
75526;SDS011;64107;49.248;7.006;2023-03-01T06:29:25;21.83;;;11.23;;
75526;SDS011;64107;49.248;7.006;2023-03-01T06:31:51;23.45;;;13.88;;
75526;SDS011;64107;49.248;7.006;2023-03-01T06:34:17;21.27;;;9.95;;
75526;SDS011;64107;49.248;7.006;2023-03-01T06:36:44;18.73;;;10.57;;
75526;SDS011;64107;49.248;7.006;2023-03-01T06:39:11;15.50;;;7.05;;
75526;SDS011;64107;49.248;7.006;2023-03-01T06:41:37;21.02;;;8.98;;
75526;SDS011;64107;49.248;7.006;2023-03-01T06:44:03;21.08;;;10.70;;
75526;SDS011;64107;49.248;7.006;2023-03-01T06:46:29;15.38;;;8.18;;
75526;SDS011;64107;49.248;7.006;2023-03-01T06:48:55;19.08;;;8.75;;
75526;SDS011;64107;49.248;7.006;2023-03-01T06:51:21;13.95;;;8.10;;
75526;SDS011;64107;49.248;7.006;2023-03-01T06:53:47;19.08;;;8.90;;
75526;SDS011;64107;49.248;7.006;2023-03-01T06:56:14;20.05;;;11.00;;
75526;SDS011;64107;49.248;7.006;2023-03-01T06:58:40;17.10;;;8.73;;
75526;SDS011;64107;49.248;7.006;2023-03-01T07:01:06;16.23;;;7.15;;
75526;SDS011;64107;49.248;7.006;2023-03-01T07:03:33;18.77;;;9.43;;
75526;SDS011;64107;49.248;7.006;2023-03-01T07:05:59;16.20;;;7.63;;
75526;SDS011;64107;49.248;7.006;2023-03-01T07:08:26;21.77;;;9.77;;
75526;SDS011;64107;49.248;7.006;2023-03-01T07:13:21;17.77;;;9.30;;
75526;SDS011;64107;49.248;7.006;2023-03-01T07:15:47;17.25;;;7.13;;
75526;SDS011;64107;49.248;7.006;2023-03-01T07:18:13;19.50;;;9.60;;
75526;SDS011;64107;49.248;7.006;2023-03-01T07:20:40;10.88;;;4.05;;
75526;SDS011;64107;49.248;7.006;2023-03-01T07:23:06;19.58;;;10.38;;
75526;SDS011;64107;49.248;7.006;2023-03-01T07:25:32;17.50;;;8.75;;
75526;SDS011;64107;49.248;7.006;2023-03-01T07:27:58;18.67;;;11.15;;
75526;SDS011;64107;49.248;7.006;2023-03-01T07:30:25;15.82;;;9.40;;
75526;SDS011;64107;49.248;7.006;2023-03-01T07:32:53;22.63;;;11.63;;
75526;SDS011;64107;49.248;7.006;2023-03-01T07:35:20;15.35;;;10.48;;
75526;SDS011;64107;49.248;7.006;2023-03-01T07:37:46;21.88;;;12.95;;
75526;SDS011;64107;49.248;7.006;2023-03-01T07:40:12;18.27;;;9.35;;
75526;SDS011;64107;49.248;7.006;2023-03-01T07:42:39;18.25;;;9.40;;
75526;SDS011;64107;49.248;7.006;2023-03-01T07:45:05;17.67;;;11.40;;
75526;SDS011;64107;49.248;7.006;2023-03-01T07:47:32;16.83;;;8.65;;
75526;SDS011;64107;49.248;7.006;2023-03-01T07:52:24;15.38;;;11.05;;
75526;SDS011;64107;49.248;7.006;2023-03-01T07:54:50;16.70;;;8.07;;
75526;SDS011;64107;49.248;7.006;2023-03-01T07:57:16;18.83;;;10.70;;
75526;SDS011;64107;49.248;7.006;2023-03-01T07:59:42;19.90;;;10.80;;
75526;SDS011;64107;49.248;7.006;2023-03-01T08:02:09;22.08;;;13.90;;
75526;SDS011;64107;49.248;7.006;2023-03-01T08:04:36;47.15;;;9.50;;
75526;SDS011;64107;49.248;7.006;2023-03-01T08:07:04;15.63;;;9.30;;
75526;SDS011;64107;49.248;7.006;2023-03-01T08:09:30;21.13;;;11.13;;
75526;SDS011;64107;49.248;7.006;2023-03-01T08:11:57;13.85;;;7.40;;
75526;SDS011;64107;49.248;7.006;2023-03-01T08:14:26;19.70;;;10.95;;
75526;SDS011;64107;49.248;7.006;2023-03-01T08:16:52;18.70;;;9.38;;
75526;SDS011;64107;49.248;7.006;2023-03-01T08:19:18;18.35;;;8.93;;
75526;SDS011;64107;49.248;7.006;2023-03-01T08:21:44;18.63;;;11.50;;
75526;SDS011;64107;49.248;7.006;2023-03-01T08:24:10;19.00;;;10.35;;
75526;SDS011;64107;49.248;7.006;2023-03-01T08:26:36;17.70;;;8.15;;
75526;SDS011;64107;49.248;7.006;2023-03-01T08:29:03;17.75;;;9.20;;
75526;SDS011;64107;49.248;7.006;2023-03-01T08:31:30;19.80;;;10.63;;
75526;SDS011;64107;49.248;7.006;2023-03-01T08:33:59;18.05;;;9.65;;
75526;SDS011;64107;49.248;7.006;2023-03-01T08:36:30;18.48;;;10.65;;
75526;SDS011;64107;49.248;7.006;2023-03-01T08:38:58;18.95;;;10.95;;
75526;SDS011;64107;49.248;7.006;2023-03-01T08:41:24;18.65;;;11.10;;
75526;SDS011;64107;49.248;7.006;2023-03-01T08:43:51;16.23;;;9.13;;
75526;SDS011;64107;49.248;7.006;2023-03-01T08:46:17;15.82;;;8.32;;
75526;SDS011;64107;49.248;7.006;2023-03-01T08:48:43;16.58;;;8.30;;
75526;SDS011;64107;49.248;7.006;2023-03-01T08:51:14;20.05;;;9.52;;
75526;SDS011;64107;49.248;7.006;2023-03-01T08:53:41;8.85;;;5.70;;
75526;SDS011;64107;49.248;7.006;2023-03-01T08:56:08;23.90;;;10.13;;
75526;SDS011;64107;49.248;7.006;2023-03-01T08:58:35;18.40;;;11.18;;
75526;SDS011;64107;49.248;7.006;2023-03-01T09:01:06;20.20;;;13.00;;
75526;SDS011;64107;49.248;7.006;2023-03-01T09:03:33;20.38;;;12.07;;
75526;SDS011;64107;49.248;7.006;2023-03-01T09:06:02;18.38;;;11.80;;
75526;SDS011;64107;49.248;7.006;2023-03-01T09:08:30;19.83;;;11.23;;
75526;SDS011;64107;49.248;7.006;2023-03-01T09:10:56;23.85;;;13.98;;
75526;SDS011;64107;49.248;7.006;2023-03-01T09:13:22;16.20;;;9.52;;
75526;SDS011;64107;49.248;7.006;2023-03-01T09:15:49;16.70;;;9.98;;
75526;SDS011;64107;49.248;7.006;2023-03-01T09:20:42;20.02;;;9.73;;
75526;SDS011;64107;49.248;7.006;2023-03-01T09:23:08;24.30;;;10.80;;
75526;SDS011;64107;49.248;7.006;2023-03-01T09:25:34;17.23;;;8.93;;
75526;SDS011;64107;49.248;7.006;2023-03-01T09:28:01;15.30;;;7.57;;
75526;SDS011;64107;49.248;7.006;2023-03-01T09:30:27;18.60;;;11.00;;
75526;SDS011;64107;49.248;7.006;2023-03-01T09:32:53;11.88;;;7.38;;
75526;SDS011;64107;49.248;7.006;2023-03-01T09:35:20;14.65;;;8.52;;
75526;SDS011;64107;49.248;7.006;2023-03-01T09:37:47;14.82;;;10.02;;
75526;SDS011;64107;49.248;7.006;2023-03-01T09:40:17;16.63;;;7.38;;
75526;SDS011;64107;49.248;7.006;2023-03-01T09:42:46;18.48;;;10.82;;
75526;SDS011;64107;49.248;7.006;2023-03-01T09:45:27;19.50;;;9.18;;
75526;SDS011;64107;49.248;7.006;2023-03-01T09:48:02;19.50;;;10.80;;
75526;SDS011;64107;49.248;7.006;2023-03-01T09:50:34;11.63;;;5.32;;
75526;SDS011;64107;49.248;7.006;2023-03-01T09:53:06;19.58;;;9.48;;
75526;SDS011;64107;49.248;7.006;2023-03-01T10:00:54;19.27;;;12.02;;
75526;SDS011;64107;49.248;7.006;2023-03-01T10:03:28;18.92;;;9.82;;
75526;SDS011;64107;49.248;7.006;2023-03-01T10:06:12;16.80;;;10.10;;
75526;SDS011;64107;49.248;7.006;2023-03-01T10:11:22;17.20;;;11.07;;
75526;SDS011;64107;49.248;7.006;2023-03-01T10:16:28;15.20;;;9.95;;
75526;SDS011;64107;49.248;7.006;2023-03-01T10:19:02;22.73;;;15.68;;
75526;SDS011;64107;49.248;7.006;2023-03-01T10:21:30;17.23;;;9.70;;
75526;SDS011;64107;49.248;7.006;2023-03-01T10:24:05;19.02;;;10.65;;
75526;SDS011;64107;49.248;7.006;2023-03-01T10:29:12;19.05;;;9.70;;
75526;SDS011;64107;49.248;7.006;2023-03-01T10:34:13;10.82;;;5.57;;
75526;SDS011;64107;49.248;7.006;2023-03-01T10:36:42;17.38;;;10.05;;
75526;SDS011;64107;49.248;7.006;2023-03-01T10:39:17;13.05;;;7.95;;
75526;SDS011;64107;49.248;7.006;2023-03-01T10:41:52;17.60;;;10.38;;
75526;SDS011;64107;49.248;7.006;2023-03-01T10:47:13;7.50;;;3.85;;
75526;SDS011;64107;49.248;7.006;2023-03-01T10:49:54;14.05;;;7.93;;
75526;SDS011;64107;49.248;7.006;2023-03-01T10:52:32;23.65;;;10.88;;
75526;SDS011;64107;49.248;7.006;2023-03-01T10:55:45;20.55;;;10.95;;
75526;SDS011;64107;49.248;7.006;2023-03-01T10:57:46;16.27;;;10.27;;
75526;SDS011;64107;49.248;7.006;2023-03-01T11:02:47;19.90;;;9.77;;
75526;SDS011;64107;49.248;7.006;2023-03-01T11:05:22;19.50;;;13.00;;
75526;SDS011;64107;49.248;7.006;2023-03-01T11:07:51;14.15;;;9.23;;
75526;SDS011;64107;49.248;7.006;2023-03-01T11:10:23;18.40;;;9.93;;
75526;SDS011;64107;49.248;7.006;2023-03-01T11:12:53;16.00;;;7.97;;
75526;SDS011;64107;49.248;7.006;2023-03-01T11:15:39;13.93;;;7.03;;
75526;SDS011;64107;49.248;7.006;2023-03-01T11:20:42;22.10;;;9.95;;
75526;SDS011;64107;49.248;7.006;2023-03-01T11:23:10;15.95;;;9.57;;
75526;SDS011;64107;49.248;7.006;2023-03-01T11:25:38;18.20;;;8.30;;
75526;SDS011;64107;49.248;7.006;2023-03-01T11:28:13;17.60;;;8.98;;
75526;SDS011;64107;49.248;7.006;2023-03-01T11:30:45;16.40;;;8.63;;
75526;SDS011;64107;49.248;7.006;2023-03-01T11:33:34;16.00;;;8.63;;
75526;SDS011;64107;49.248;7.006;2023-03-01T11:38:57;16.52;;;9.38;;
75526;SDS011;64107;49.248;7.006;2023-03-01T11:41:35;21.08;;;13.05;;
75526;SDS011;64107;49.248;7.006;2023-03-01T11:44:03;16.23;;;11.55;;
75526;SDS011;64107;49.248;7.006;2023-03-01T11:49:36;17.48;;;9.43;;
75526;SDS011;64107;49.248;7.006;2023-03-01T11:52:25;15.55;;;9.98;;
75526;SDS011;64107;49.248;7.006;2023-03-01T12:08:41;15.82;;;10.25;;
75526;SDS011;64107;49.248;7.006;2023-03-01T12:17:19;16.33;;;9.77;;
75526;SDS011;64107;49.248;7.006;2023-03-01T12:19:48;17.67;;;9.65;;
75526;SDS011;64107;49.248;7.006;2023-03-01T12:22:32;16.10;;;9.35;;
75526;SDS011;64107;49.248;7.006;2023-03-01T12:28:11;15.30;;;10.27;;
75526;SDS011;64107;49.248;7.006;2023-03-01T12:36:40;18.40;;;12.35;;
75526;SDS011;64107;49.248;7.006;2023-03-01T12:41:47;31.92;;;15.70;;
75526;SDS011;64107;49.248;7.006;2023-03-01T12:44:29;16.77;;;10.65;;
75526;SDS011;64107;49.248;7.006;2023-03-01T12:47:03;18.25;;;10.65;;
75526;SDS011;64107;49.248;7.006;2023-03-01T12:49:51;27.95;;;14.32;;
75526;SDS011;64107;49.248;7.006;2023-03-01T13:01:00;15.90;;;11.88;;
75526;SDS011;64107;49.248;7.006;2023-03-01T13:03:35;12.73;;;10.23;;
75526;SDS011;64107;49.248;7.006;2023-03-01T13:08:38;13.95;;;7.55;;
75526;SDS011;64107;49.248;7.006;2023-03-01T13:13:41;16.80;;;11.35;;
75526;SDS011;64107;49.248;7.006;2023-03-01T13:16:21;13.85;;;7.10;;
75526;SDS011;64107;49.248;7.006;2023-03-01T13:19:06;15.15;;;9.63;;
75526;SDS011;64107;49.248;7.006;2023-03-01T13:21:39;14.00;;;8.50;;
75526;SDS011;64107;49.248;7.006;2023-03-01T13:24:23;13.48;;;9.15;;
75526;SDS011;64107;49.248;7.006;2023-03-01T13:34:53;15.60;;;8.85;;
75526;SDS011;64107;49.248;7.006;2023-03-01T13:37:25;12.13;;;8.77;;
75526;SDS011;64107;49.248;7.006;2023-03-01T13:39:54;12.15;;;7.63;;
75526;SDS011;64107;49.248;7.006;2023-03-01T13:45:02;15.25;;;9.02;;
75526;SDS011;64107;49.248;7.006;2023-03-01T13:47:52;14.73;;;9.60;;
75526;SDS011;64107;49.248;7.006;2023-03-01T13:50:38;17.13;;;8.85;;
75526;SDS011;64107;49.248;7.006;2023-03-01T13:53:17;14.77;;;9.95;;
75526;SDS011;64107;49.248;7.006;2023-03-01T13:55:45;14.10;;;11.63;;
75526;SDS011;64107;49.248;7.006;2023-03-01T13:58:18;17.02;;;9.95;;
75526;SDS011;64107;49.248;7.006;2023-03-01T14:00:46;16.67;;;12.02;;
75526;SDS011;64107;49.248;7.006;2023-03-01T14:03:16;18.05;;;11.45;;
75526;SDS011;64107;49.248;7.006;2023-03-01T14:05:57;15.35;;;8.98;;
75526;SDS011;64107;49.248;7.006;2023-03-01T14:08:27;14.52;;;11.20;;
75526;SDS011;64107;49.248;7.006;2023-03-01T14:19:32;15.63;;;10.88;;
75526;SDS011;64107;49.248;7.006;2023-03-01T14:24:46;16.80;;;12.75;;
75526;SDS011;64107;49.248;7.006;2023-03-01T14:27:15;15.55;;;9.75;;
75526;SDS011;64107;49.248;7.006;2023-03-01T14:29:42;14.48;;;9.50;;
75526;SDS011;64107;49.248;7.006;2023-03-01T14:32:19;19.50;;;10.98;;
75526;SDS011;64107;49.248;7.006;2023-03-01T14:34:48;14.85;;;10.07;;
75526;SDS011;64107;49.248;7.006;2023-03-01T14:39:45;14.73;;;10.43;;
75526;SDS011;64107;49.248;7.006;2023-03-01T14:42:12;15.20;;;12.70;;
75526;SDS011;64107;49.248;7.006;2023-03-01T14:44:41;20.85;;;9.05;;
75526;SDS011;64107;49.248;7.006;2023-03-01T14:47:12;14.18;;;9.30;;
75526;SDS011;64107;49.248;7.006;2023-03-01T14:49:41;17.80;;;11.77;;
75526;SDS011;64107;49.248;7.006;2023-03-01T14:52:16;15.15;;;9.45;;
75526;SDS011;64107;49.248;7.006;2023-03-01T14:54:46;17.38;;;11.50;;
75526;SDS011;64107;49.248;7.006;2023-03-01T14:57:14;16.13;;;11.40;;
75526;SDS011;64107;49.248;7.006;2023-03-01T14:59:43;16.33;;;11.00;;
75526;SDS011;64107;49.248;7.006;2023-03-01T15:02:13;16.75;;;10.50;;
75526;SDS011;64107;49.248;7.006;2023-03-01T15:04:43;15.35;;;9.70;;
75526;SDS011;64107;49.248;7.006;2023-03-01T15:07:14;16.27;;;10.18;;
75526;SDS011;64107;49.248;7.006;2023-03-01T15:09:40;13.77;;;9.07;;
75526;SDS011;64107;49.248;7.006;2023-03-01T15:17:30;15.73;;;9.90;;
75526;SDS011;64107;49.248;7.006;2023-03-01T15:19:59;15.88;;;10.25;;
75526;SDS011;64107;49.248;7.006;2023-03-01T15:22:30;17.40;;;10.95;;
75526;SDS011;64107;49.248;7.006;2023-03-01T15:24:56;15.20;;;10.57;;
75526;SDS011;64107;49.248;7.006;2023-03-01T15:27:23;15.57;;;9.00;;
75526;SDS011;64107;49.248;7.006;2023-03-01T15:29:58;14.07;;;8.48;;
75526;SDS011;64107;49.248;7.006;2023-03-01T15:32:30;12.35;;;6.90;;
75526;SDS011;64107;49.248;7.006;2023-03-01T15:35:49;17.70;;;9.70;;
75526;SDS011;64107;49.248;7.006;2023-03-01T15:41:25;14.07;;;8.35;;
75526;SDS011;64107;49.248;7.006;2023-03-01T15:43:53;16.60;;;9.25;;
75526;SDS011;64107;49.248;7.006;2023-03-01T15:46:27;14.18;;;9.23;;
75526;SDS011;64107;49.248;7.006;2023-03-01T15:51:30;18.60;;;9.68;;
75526;SDS011;64107;49.248;7.006;2023-03-01T15:54:23;14.55;;;10.43;;
75526;SDS011;64107;49.248;7.006;2023-03-01T15:56:48;15.30;;;9.93;;
75526;SDS011;64107;49.248;7.006;2023-03-01T15:59:15;13.88;;;9.70;;
75526;SDS011;64107;49.248;7.006;2023-03-01T16:01:42;15.73;;;8.70;;
75526;SDS011;64107;49.248;7.006;2023-03-01T16:04:12;14.70;;;9.13;;
75526;SDS011;64107;49.248;7.006;2023-03-01T16:06:45;17.80;;;8.35;;
75526;SDS011;64107;49.248;7.006;2023-03-01T16:09:19;12.82;;;8.38;;
75526;SDS011;64107;49.248;7.006;2023-03-01T16:11:50;13.85;;;9.13;;
75526;SDS011;64107;49.248;7.006;2023-03-01T16:14:16;14.82;;;8.73;;
75526;SDS011;64107;49.248;7.006;2023-03-01T16:16:45;11.88;;;9.23;;
75526;SDS011;64107;49.248;7.006;2023-03-01T16:19:13;14.00;;;8.77;;
75526;SDS011;64107;49.248;7.006;2023-03-01T16:21:39;13.55;;;9.50;;
75526;SDS011;64107;49.248;7.006;2023-03-01T16:24:07;11.30;;;7.93;;
75526;SDS011;64107;49.248;7.006;2023-03-01T16:26:34;14.23;;;8.07;;
75526;SDS011;64107;49.248;7.006;2023-03-01T16:29:01;11.98;;;7.18;;
75526;SDS011;64107;49.248;7.006;2023-03-01T16:31:27;13.13;;;8.20;;
75526;SDS011;64107;49.248;7.006;2023-03-01T16:33:54;13.23;;;7.50;;
75526;SDS011;64107;49.248;7.006;2023-03-01T16:36:22;14.38;;;8.00;;
75526;SDS011;64107;49.248;7.006;2023-03-01T16:38:49;13.40;;;7.03;;
75526;SDS011;64107;49.248;7.006;2023-03-01T16:41:19;14.52;;;9.18;;
75526;SDS011;64107;49.248;7.006;2023-03-01T16:43:46;12.75;;;6.28;;
75526;SDS011;64107;49.248;7.006;2023-03-01T16:46:13;12.98;;;8.73;;
75526;SDS011;64107;49.248;7.006;2023-03-01T16:48:41;12.35;;;8.93;;
75526;SDS011;64107;49.248;7.006;2023-03-01T16:51:08;11.13;;;7.47;;
75526;SDS011;64107;49.248;7.006;2023-03-01T16:53:34;10.63;;;6.43;;
75526;SDS011;64107;49.248;7.006;2023-03-01T16:56:03;11.18;;;7.30;;
75526;SDS011;64107;49.248;7.006;2023-03-01T16:58:31;10.27;;;5.88;;
75526;SDS011;64107;49.248;7.006;2023-03-01T17:01:02;11.23;;;6.45;;
75526;SDS011;64107;49.248;7.006;2023-03-01T17:03:33;12.77;;;5.78;;
75526;SDS011;64107;49.248;7.006;2023-03-01T17:08:33;15.23;;;6.47;;